createdAt,value
2022-08-08T00:03:38.444Z,59.20
2022-08-08T00:08:49.544Z,59.60
2022-08-08T00:14:16.714Z,59.80
2022-08-08T00:19:24.462Z,60.10
2022-08-08T00:24:30.426Z,60.20
2022-08-08T00:29:45.471Z,60.40
2022-08-08T00:35:16.681Z,60.60
2022-08-08T00:41:07.896Z,60.70
2022-08-08T00:46:16.126Z,61.10
2022-08-08T00:51:42.347Z,61.30
2022-08-08T00:57:01.646Z,61.70
2022-08-08T01:03:57.246Z,61.80
2022-08-08T01:08:09.778Z,62.00
2022-08-08T01:13:43.640Z,62.30
2022-08-08T01:19:11.613Z,62.50
2022-08-08T01:24:50.836Z,62.80
2022-08-08T01:30:12.869Z,63.00
2022-08-08T01:35:40.530Z,63.30
2022-08-08T01:40:55.087Z,63.50
2022-08-08T01:46:05.151Z,63.90
2022-08-08T01:52:02.391Z,64.40
2022-08-08T01:57:02.599Z,64.70
2022-08-08T02:02:10.693Z,65.10
2022-08-08T02:07:51.644Z,65.50
2022-08-08T02:13:02.376Z,65.90
2022-08-08T02:18:12.354Z,66.30
2022-08-08T02:23:23.390Z,66.70
2022-08-08T02:28:48.426Z,66.90
2022-08-08T02:34:08.297Z,67.00
2022-08-08T02:39:42.709Z,67.30
2022-08-08T02:45:18.535Z,67.50
2022-08-08T02:50:52.787Z,67.70
2022-08-08T02:56:24.968Z,68.10
2022-08-08T03:01:50.569Z,68.20
2022-08-08T03:07:14.052Z,68.60
2022-08-08T03:13:01.079Z,69.00
2022-08-08T03:18:10.309Z,69.50
2022-08-08T03:23:20.230Z,70.00
2022-08-08T03:28:28.575Z,70.10
2022-08-08T03:33:55.039Z,70.40
2022-08-08T03:39:14.631Z,70.70
2022-08-08T03:44:25.778Z,70.90
2022-08-08T03:49:57.740Z,71.30
2022-08-08T03:55:09.919Z,71.60
2022-08-08T04:00:18.289Z,71.90
2022-08-08T04:05:29.323Z,72.30
2022-08-08T04:10:39.995Z,72.60
2022-08-08T04:15:55.054Z,73.10
2022-08-08T04:21:12.434Z,73.80
2022-08-08T04:26:19.507Z,73.90
2022-08-08T04:31:57.282Z,74.10
2022-08-08T04:36:46.889Z,74.20
2022-08-08T04:41:52.252Z,74.70
2022-08-08T04:46:59.554Z,75.40
2022-08-08T04:52:04.082Z,72.00
2022-08-08T04:57:09.772Z,68.70
2022-08-08T05:02:14.439Z,65.80
2022-08-08T05:07:18.657Z,62.50
2022-08-08T05:12:29.185Z,63.10
2022-08-08T05:17:53.703Z,65.20
2022-08-08T05:22:57.242Z,67.40
2022-08-08T05:28:06.349Z,69.00
2022-08-08T05:33:12.583Z,69.90
2022-08-08T05:38:30.836Z,70.70
2022-08-08T05:44:03.611Z,71.60
2022-08-08T05:49:11.001Z,72.30
2022-08-08T05:54:28.104Z,72.60
2022-08-08T06:00:01.113Z,72.60
2022-08-08T06:05:32.942Z,73.00
2022-08-08T06:10:46.774Z,72.90
2022-08-08T06:15:54.878Z,72.90
2022-08-08T06:21:28.592Z,72.80
2022-08-08T06:26:35.964Z,72.70
2022-08-08T06:32:09.485Z,72.40
2022-08-08T06:37:24.789Z,71.60
2022-08-08T06:42:34.493Z,71.50
2022-08-08T06:47:58.169Z,71.20
2022-08-08T06:53:13.970Z,70.90
2022-08-08T06:58:30.468Z,70.50
2022-08-08T07:04:35.678Z,70.10
2022-08-08T07:09:15.279Z,69.50
2022-08-08T07:14:27.880Z,69.00
2022-08-08T07:19:39.648Z,68.70
2022-08-08T07:24:44.800Z,68.30
2022-08-08T07:30:02.361Z,67.70
2022-08-08T07:35:14.174Z,67.30
2022-08-08T07:40:30.019Z,66.70
2022-08-08T07:46:05.853Z,66.00
2022-08-08T07:51:24.067Z,65.20
2022-08-08T07:56:38.491Z,64.50
2022-08-08T08:02:35.728Z,63.80
2022-08-08T08:07:13.824Z,63.00
2022-08-08T08:12:35.300Z,62.20
2022-08-08T08:17:48.277Z,61.60
2022-08-08T08:22:57.314Z,60.30
2022-08-08T08:28:01.124Z,59.70
2022-08-08T08:33:11.011Z,58.80
2022-08-08T08:38:19.123Z,58.10
2022-08-08T08:43:32.072Z,57.10
2022-08-08T08:48:37.660Z,56.40
2022-08-08T08:54:00.866Z,55.50
2022-08-08T08:59:15.635Z,55.00
2022-08-08T09:04:32.032Z,54.00
2022-08-08T09:09:57.431Z,53.30
2022-08-08T09:15:11.979Z,52.20
2022-08-08T09:21:56.519Z,52.10
2022-08-08T09:26:00.729Z,51.20
2022-08-08T09:31:13.267Z,50.20
2022-08-08T09:36:22.605Z,49.80
2022-08-08T09:42:14.596Z,49.50
2022-08-08T09:47:05.364Z,48.80
2022-08-08T09:52:56.370Z,48.30
2022-08-08T09:57:55.593Z,47.80
2022-08-08T10:03:01.287Z,47.00
2022-08-08T10:08:04.956Z,46.40
2022-08-08T10:13:26.125Z,46.70
2022-08-08T10:18:37.131Z,46.00
2022-08-08T10:23:44.186Z,45.70
2022-08-08T10:28:57.091Z,45.80
2022-08-08T10:34:19.934Z,45.30
2022-08-08T10:39:31.503Z,45.10
2022-08-08T10:44:49.258Z,44.80
2022-08-08T10:50:02.134Z,44.70
2022-08-08T10:55:07.375Z,44.70
2022-08-08T11:00:15.160Z,44.50
2022-08-08T11:05:18.738Z,44.50
2022-08-08T11:10:28.690Z,44.80
2022-08-08T11:15:35.351Z,44.70
2022-08-08T11:20:56.174Z,44.40
2022-08-08T11:26:02.575Z,44.30
2022-08-08T11:31:09.784Z,44.40
2022-08-08T11:36:15.073Z,44.40
2022-08-08T11:41:19.491Z,44.40
2022-08-08T11:46:25.474Z,44.00
2022-08-08T11:51:40.204Z,43.90
2022-08-08T11:56:56.789Z,43.70
2022-08-08T12:02:31.033Z,43.40
2022-08-08T12:07:31.850Z,43.20
2022-08-08T12:12:45.749Z,43.20
2022-08-08T12:17:51.442Z,43.20
2022-08-08T12:22:57.071Z,43.00
2022-08-08T12:28:15.428Z,43.00
2022-08-08T12:33:22.241Z,42.70
2022-08-08T12:38:31.271Z,42.70
2022-08-08T12:43:46.225Z,42.50
2022-08-08T12:54:25.473Z,42.50
2022-08-08T12:59:44.433Z,42.30
2022-08-08T13:04:55.509Z,42.60
2022-08-08T13:10:05.163Z,42.40
2022-08-08T13:15:10.458Z,42.10
2022-08-08T13:20:18.131Z,42.00
2022-08-08T13:25:22.612Z,42.10
2022-08-08T13:30:28.330Z,42.00
2022-08-08T13:35:41.199Z,41.90
2022-08-08T13:40:48.276Z,42.00
2022-08-08T13:45:55.067Z,41.60
2022-08-08T13:51:25.197Z,41.40
2022-08-08T13:56:44.540Z,41.50
2022-08-08T14:02:00.417Z,41.60
2022-08-08T14:07:09.993Z,42.10
2022-08-08T14:12:15.765Z,41.40
2022-08-08T14:17:22.484Z,41.30
2022-08-08T14:22:45.882Z,41.30
2022-08-08T14:28:00.223Z,41.30
2022-08-08T14:33:12.953Z,41.20
2022-08-08T14:38:33.647Z,41.00
2022-08-08T14:44:10.273Z,41.20
2022-08-08T14:49:20.632Z,41.20
2022-08-08T14:54:45.863Z,41.00
2022-08-08T14:59:51.287Z,40.90
2022-08-08T15:05:10.680Z,40.70
2022-08-08T15:10:18.764Z,40.70
2022-08-08T15:16:02.837Z,40.70
2022-08-08T15:20:47.804Z,40.50
2022-08-08T15:25:53.191Z,40.50
2022-08-08T15:30:58.262Z,40.50
2022-08-08T15:36:03.846Z,40.50
2022-08-08T15:41:09.250Z,40.70
2022-08-08T15:46:12.833Z,40.70
2022-08-08T15:51:16.600Z,40.70
2022-08-08T15:56:21.353Z,40.80
2022-08-08T16:01:25.303Z,40.50
2022-08-08T16:06:45.791Z,40.50
2022-08-08T16:13:02.572Z,41.10
2022-08-08T16:17:13.912Z,40.60
2022-08-08T16:22:30.439Z,40.60
2022-08-08T16:27:36.915Z,40.40
2022-08-08T16:32:40.079Z,40.40
2022-08-08T16:37:47.659Z,40.00
2022-08-08T16:42:54.418Z,40.00
2022-08-08T16:47:58.043Z,40.00
2022-08-08T16:55:23.876Z,40.20
2022-08-08T16:58:32.640Z,39.90
2022-08-08T17:03:59.309Z,39.90
2022-08-08T17:09:01.557Z,39.60
2022-08-08T17:14:17.740Z,39.10
2022-08-08T17:19:23.017Z,39.10
2022-08-08T17:24:29.935Z,38.90
2022-08-08T17:29:36.544Z,38.90
2022-08-08T17:35:52.223Z,39.10
2022-08-08T17:40:15.343Z,39.30
2022-08-08T17:45:22.411Z,39.30
2022-08-08T17:50:27.348Z,39.40
2022-08-08T17:56:06.634Z,39.50
2022-08-08T18:00:56.409Z,39.80
2022-08-08T18:06:01.161Z,40.00
2022-08-08T18:11:07.904Z,40.30
2022-08-08T18:16:17.023Z,40.40
2022-08-08T18:21:59.465Z,40.70
2022-08-08T18:26:53.746Z,41.10
2022-08-08T18:32:00.693Z,41.40
2022-08-08T18:37:08.604Z,41.90
2022-08-08T18:42:16.666Z,42.20
2022-08-08T18:47:28.079Z,42.60
2022-08-08T18:52:36.935Z,43.10
2022-08-08T18:57:43.161Z,43.60
2022-08-08T19:02:56.628Z,43.90
2022-08-08T19:08:00.383Z,44.30
2022-08-08T19:13:05.455Z,44.70
2022-08-08T19:18:48.267Z,45.30
2022-08-08T19:23:49.116Z,45.70
2022-08-08T19:28:52.723Z,46.10
2022-08-08T19:34:29.711Z,46.30
2022-08-08T19:39:22.877Z,46.70
2022-08-08T19:44:43.224Z,46.60
2022-08-08T19:49:59.567Z,46.80
2022-08-08T19:55:05.889Z,47.50
2022-08-08T20:00:11.033Z,47.90
2022-08-08T20:06:15.560Z,48.10
2022-08-08T20:10:58.002Z,48.50
2022-08-08T20:16:01.376Z,48.90
2022-08-08T20:21:06.447Z,49.50
2022-08-08T20:26:10.133Z,50.10
2022-08-08T20:31:14.271Z,50.30
2022-08-08T20:36:23.652Z,51.30
2022-08-08T20:41:31.256Z,51.60
2022-08-08T20:46:37.756Z,52.10
2022-08-08T20:51:42.475Z,52.40
2022-08-08T20:57:03.988Z,52.80
2022-08-08T21:02:17.735Z,52.60
2022-08-08T21:07:47.923Z,52.70
2022-08-08T21:12:54.861Z,53.20
2022-08-08T21:17:57.939Z,53.50
2022-08-08T21:23:02.826Z,53.70
2022-08-08T21:28:14.883Z,53.30
2022-08-08T21:33:19.677Z,53.90
2022-08-08T21:38:24.607Z,54.20
2022-08-08T21:43:33.530Z,54.40
2022-08-08T21:48:41.802Z,54.80
2022-08-08T21:54:27.269Z,55.00
2022-08-08T21:59:18.297Z,55.80
2022-08-08T22:04:25.600Z,55.70
2022-08-08T22:09:37.243Z,55.90
2022-08-08T22:14:44.278Z,56.20
2022-08-08T22:20:10.779Z,56.40
2022-08-08T22:25:24.802Z,56.60
2022-08-08T22:30:30.032Z,57.00
2022-08-08T22:36:04.956Z,57.80
2022-08-08T22:40:59.062Z,57.90
2022-08-08T22:46:03.656Z,57.70
2022-08-08T22:51:08.174Z,57.70
2022-08-08T22:56:13.115Z,57.90
2022-08-08T23:02:01.960Z,57.90
2022-08-08T23:06:41.401Z,58.00
2022-08-08T23:12:28.048Z,58.30
2022-08-08T23:17:09.602Z,58.30
2022-08-08T23:22:14.409Z,58.60
2022-08-08T23:27:39.168Z,58.80
2022-08-08T23:32:45.121Z,59.00
2022-08-08T23:38:01.899Z,59.30
2022-08-08T23:43:08.640Z,59.50
2022-08-08T23:49:05.805Z,59.70
2022-08-08T23:54:06.505Z,60.00
2022-08-08T23:59:01.122Z,60.30
